sensor_id;sensor_type;location;lat;lon;timestamp;pressure;altitude;pressure_sealevel;temperature;humidity
60465;BME280;46314;52.392;9.758;2023-03-25T00:01:49;99430.41;;;10.66;72.15
60465;BME280;46314;52.392;9.758;2023-03-25T00:04:15;99426.03;;;11.03;70.39
60465;BME280;46314;52.392;9.758;2023-03-25T00:06:43;99428.56;;;10.87;70.37
60465;BME280;46314;52.392;9.758;2023-03-25T00:09:10;99425.41;;;10.59;71.07
60465;BME280;46314;52.392;9.758;2023-03-25T00:11:36;99431.75;;;10.98;70.04
60465;BME280;46314;52.392;9.758;2023-03-25T00:14:03;99417.78;;;10.86;70.24
60465;BME280;46314;52.392;9.758;2023-03-25T00:16:29;99425.50;;;10.80;69.77
60465;BME280;46314;52.392;9.758;2023-03-25T00:18:56;99426.63;;;11.09;69.98
60465;BME280;46314;52.392;9.758;2023-03-25T00:21:22;99429.16;;;11.23;70.29
60465;BME280;46314;52.392;9.758;2023-03-25T00:23:50;99416.22;;;10.67;70.65
60465;BME280;46314;52.392;9.758;2023-03-25T00:26:17;99417.59;;;10.91;70.65
60465;BME280;46314;52.392;9.758;2023-03-25T00:28:43;99414.38;;;11.10;70.13
60465;BME280;46314;52.392;9.758;2023-03-25T00:31:11;99412.00;;;10.99;70.27
60465;BME280;46314;52.392;9.758;2023-03-25T00:33:38;99403.88;;;11.45;69.40
60465;BME280;46314;52.392;9.758;2023-03-25T00:36:05;99402.53;;;11.01;69.11
60465;BME280;46314;52.392;9.758;2023-03-25T00:38:33;99409.19;;;10.78;70.15
60465;BME280;46314;52.392;9.758;2023-03-25T00:41:12;99404.09;;;10.80;70.65
60465;BME280;46314;52.392;9.758;2023-03-25T00:43:39;99399.66;;;10.50;71.67
60465;BME280;46314;52.392;9.758;2023-03-25T00:46:05;99400.69;;;10.36;71.95
60465;BME280;46314;52.392;9.758;2023-03-25T00:48:32;99404.13;;;10.33;72.29
60465;BME280;46314;52.392;9.758;2023-03-25T00:50:58;99412.59;;;10.37;72.24
60465;BME280;46314;52.392;9.758;2023-03-25T00:53:25;99414.88;;;10.35;72.22
60465;BME280;46314;52.392;9.758;2023-03-25T00:55:56;99409.00;;;10.45;71.87
60465;BME280;46314;52.392;9.758;2023-03-25T00:58:24;99413.56;;;10.32;72.52
60465;BME280;46314;52.392;9.758;2023-03-25T01:00:50;99412.09;;;10.44;72.33
60465;BME280;46314;52.392;9.758;2023-03-25T01:03:16;99419.28;;;10.36;72.19
60465;BME280;46314;52.392;9.758;2023-03-25T01:05:43;99411.72;;;10.54;71.32
60465;BME280;46314;52.392;9.758;2023-03-25T01:08:09;99410.59;;;10.85;70.59
60465;BME280;46314;52.392;9.758;2023-03-25T01:10:36;99414.06;;;10.73;70.90
60465;BME280;46314;52.392;9.758;2023-03-25T01:13:03;99411.09;;;10.39;71.60
60465;BME280;46314;52.392;9.758;2023-03-25T01:15:30;99408.31;;;10.87;69.81
60465;BME280;46314;52.392;9.758;2023-03-25T01:17:57;99410.59;;;10.46;71.83
60465;BME280;46314;52.392;9.758;2023-03-25T01:20:23;99409.72;;;10.63;70.59
60465;BME280;46314;52.392;9.758;2023-03-25T01:22:49;99413.72;;;11.13;68.89
60465;BME280;46314;52.392;9.758;2023-03-25T01:25:16;99395.91;;;10.54;70.64
60465;BME280;46314;52.392;9.758;2023-03-25T01:27:43;99401.19;;;10.77;69.89
60465;BME280;46314;52.392;9.758;2023-03-25T01:30:10;99407.44;;;10.95;69.71
60465;BME280;46314;52.392;9.758;2023-03-25T01:32:38;99403.31;;;10.80;69.13
60465;BME280;46314;52.392;9.758;2023-03-25T01:35:05;99402.59;;;10.45;70.19
60465;BME280;46314;52.392;9.758;2023-03-25T01:37:32;99409.94;;;11.17;68.31
60465;BME280;46314;52.392;9.758;2023-03-25T01:39:59;99407.03;;;11.14;68.37
60465;BME280;46314;52.392;9.758;2023-03-25T01:42:25;99398.44;;;10.68;69.69
60465;BME280;46314;52.392;9.758;2023-03-25T01:45:23;99402.91;;;11.41;67.34
60465;BME280;46314;52.392;9.758;2023-03-25T01:47:57;99402.16;;;11.32;67.49
60465;BME280;46314;52.392;9.758;2023-03-25T01:50:25;99403.16;;;11.48;67.25
60465;BME280;46314;52.392;9.758;2023-03-25T01:52:51;99401.88;;;11.25;67.93
60465;BME280;46314;52.392;9.758;2023-03-25T01:55:18;99406.69;;;11.15;68.20
60465;BME280;46314;52.392;9.758;2023-03-25T01:57:45;99386.53;;;10.97;68.02
60465;BME280;46314;52.392;9.758;2023-03-25T02:00:14;99388.78;;;10.74;69.72
60465;BME280;46314;52.392;9.758;2023-03-25T02:02:49;99387.75;;;10.88;70.03
60465;BME280;46314;52.392;9.758;2023-03-25T02:05:21;99388.31;;;11.02;68.98
60465;BME280;46314;52.392;9.758;2023-03-25T02:07:50;99391.53;;;11.34;67.84
60465;BME280;46314;52.392;9.758;2023-03-25T02:10:17;99394.44;;;11.37;68.16
60465;BME280;46314;52.392;9.758;2023-03-25T02:12:44;99383.84;;;10.89;69.73
60465;BME280;46314;52.392;9.758;2023-03-25T02:15:12;99389.97;;;11.24;68.91
60465;BME280;46314;52.392;9.758;2023-03-25T02:17:50;99404.06;;;11.19;69.01
60465;BME280;46314;52.392;9.758;2023-03-25T02:20:43;99391.25;;;11.48;67.83
60465;BME280;46314;52.392;9.758;2023-03-25T02:23:36;99394.19;;;11.01;69.46
60465;BME280;46314;52.392;9.758;2023-03-25T02:26:23;99386.50;;;10.76;70.43
60465;BME280;46314;52.392;9.758;2023-03-25T02:28:56;99392.72;;;11.03;70.73
60465;BME280;46314;52.392;9.758;2023-03-25T02:31:40;99392.22;;;10.41;73.58
60465;BME280;46314;52.392;9.758;2023-03-25T02:34:26;99400.34;;;11.06;73.92
60465;BME280;46314;52.392;9.758;2023-03-25T02:37:17;99405.38;;;10.83;75.13
60465;BME280;46314;52.392;9.758;2023-03-25T02:39:50;99397.94;;;11.05;74.50
60465;BME280;46314;52.392;9.758;2023-03-25T02:42:25;99405.19;;;10.50;76.05
60465;BME280;46314;52.392;9.758;2023-03-25T02:44:59;99398.50;;;10.59;76.90
60465;BME280;46314;52.392;9.758;2023-03-25T02:47:30;99390.34;;;10.54;76.69
60465;BME280;46314;52.392;9.758;2023-03-25T02:50:03;99387.63;;;10.46;77.79
60465;BME280;46314;52.392;9.758;2023-03-25T02:52:32;99376.53;;;10.46;77.37
60465;BME280;46314;52.392;9.758;2023-03-25T02:55:02;99384.00;;;10.54;77.41
60465;BME280;46314;52.392;9.758;2023-03-25T02:57:33;99377.78;;;10.57;77.10
60465;BME280;46314;52.392;9.758;2023-03-25T03:00:02;99367.59;;;10.40;76.67
60465;BME280;46314;52.392;9.758;2023-03-25T03:02:31;99370.72;;;10.68;75.78
60465;BME280;46314;52.392;9.758;2023-03-25T03:04:58;99366.06;;;10.51;76.55
60465;BME280;46314;52.392;9.758;2023-03-25T03:07:27;99362.66;;;10.46;76.48
60465;BME280;46314;52.392;9.758;2023-03-25T03:09:59;99366.88;;;10.82;74.42
60465;BME280;46314;52.392;9.758;2023-03-25T03:12:43;99368.66;;;10.56;74.13
60465;BME280;46314;52.392;9.758;2023-03-25T03:15:31;99368.13;;;10.93;73.27
60465;BME280;46314;52.392;9.758;2023-03-25T03:18:08;99366.34;;;10.88;73.25
60465;BME280;46314;52.392;9.758;2023-03-25T03:20:43;99362.47;;;11.10;71.71
60465;BME280;46314;52.392;9.758;2023-03-25T03:23:22;99362.00;;;10.49;72.83
60465;BME280;46314;52.392;9.758;2023-03-25T03:25:52;99358.69;;;10.64;72.68
60465;BME280;46314;52.392;9.758;2023-03-25T03:28:26;99362.69;;;10.28;73.78
60465;BME280;46314;52.392;9.758;2023-03-25T03:30:56;99366.19;;;10.08;73.90
60465;BME280;46314;52.392;9.758;2023-03-25T03:33:30;99359.22;;;9.93;75.40
60465;BME280;46314;52.392;9.758;2023-03-25T03:36:00;99370.38;;;10.22;74.85
60465;BME280;46314;52.392;9.758;2023-03-25T03:38:31;99366.38;;;10.50;71.98
60465;BME280;46314;52.392;9.758;2023-03-25T03:41:02;99370.03;;;10.41;72.58
60465;BME280;46314;52.392;9.758;2023-03-25T03:43:34;99374.03;;;10.91;70.33
60465;BME280;46314;52.392;9.758;2023-03-25T03:46:05;99368.72;;;10.30;72.09
60465;BME280;46314;52.392;9.758;2023-03-25T03:48:36;99366.13;;;10.25;71.84
60465;BME280;46314;52.392;9.758;2023-03-25T03:51:08;99371.56;;;10.60;70.97
60465;BME280;46314;52.392;9.758;2023-03-25T03:53:39;99372.28;;;10.39;71.24
60465;BME280;46314;52.392;9.758;2023-03-25T03:56:08;99365.22;;;10.59;70.58
60465;BME280;46314;52.392;9.758;2023-03-25T03:58:40;99369.22;;;10.23;71.84
60465;BME280;46314;52.392;9.758;2023-03-25T04:01:09;99372.44;;;10.52;70.63
60465;BME280;46314;52.392;9.758;2023-03-25T04:03:42;99372.16;;;10.27;70.70
60465;BME280;46314;52.392;9.758;2023-03-25T04:06:16;99374.97;;;10.95;69.47
60465;BME280;46314;52.392;9.758;2023-03-25T04:08:50;99374.91;;;10.36;71.77
60465;BME280;46314;52.392;9.758;2023-03-25T04:11:21;99383.94;;;11.01;68.58
60465;BME280;46314;52.392;9.758;2023-03-25T04:13:52;99385.34;;;10.77;69.68
60465;BME280;46314;52.392;9.758;2023-03-25T04:16:20;99376.75;;;10.14;71.53
60465;BME280;46314;52.392;9.758;2023-03-25T04:18:47;99380.59;;;10.48;69.40
60465;BME280;46314;52.392;9.758;2023-03-25T04:21:13;99375.94;;;10.31;70.38
60465;BME280;46314;52.392;9.758;2023-03-25T04:23:40;99376.56;;;10.37;69.90
60465;BME280;46314;52.392;9.758;2023-03-25T04:26:06;99383.84;;;10.50;68.93
60465;BME280;46314;52.392;9.758;2023-03-25T04:28:33;99386.69;;;10.24;69.11
60465;BME280;46314;52.392;9.758;2023-03-25T04:31:00;99392.25;;;11.01;66.79
60465;BME280;46314;52.392;9.758;2023-03-25T04:33:27;99381.28;;;10.28;68.41
60465;BME280;46314;52.392;9.758;2023-03-25T04:35:53;99378.63;;;9.84;70.26
60465;BME280;46314;52.392;9.758;2023-03-25T04:38:20;99379.81;;;10.30;69.51
60465;BME280;46314;52.392;9.758;2023-03-25T04:40:46;99378.31;;;9.77;71.29
60465;BME280;46314;52.392;9.758;2023-03-25T04:43:13;99384.97;;;9.76;71.12
60465;BME280;46314;52.392;9.758;2023-03-25T04:45:39;99376.19;;;9.65;71.57
60465;BME280;46314;52.392;9.758;2023-03-25T04:48:11;99391.16;;;9.81;71.28
60465;BME280;46314;52.392;9.758;2023-03-25T04:50:42;99377.56;;;10.15;69.75
60465;BME280;46314;52.392;9.758;2023-03-25T04:53:08;99376.75;;;10.32;69.06
60465;BME280;46314;52.392;9.758;2023-03-25T04:55:35;99379.91;;;9.78;70.05
60465;BME280;46314;52.392;9.758;2023-03-25T04:58:01;99374.50;;;10.08;70.03
60465;BME280;46314;52.392;9.758;2023-03-25T05:00:28;99377.91;;;10.22;68.94
60465;BME280;46314;52.392;9.758;2023-03-25T05:02:54;99374.25;;;10.39;67.44
60465;BME280;46314;52.392;9.758;2023-03-25T05:05:24;99389.22;;;9.91;69.76
60465;BME280;46314;52.392;9.758;2023-03-25T05:07:52;99378.59;;;10.57;67.83
60465;BME280;46314;52.392;9.758;2023-03-25T05:10:20;99382.97;;;10.02;70.33
60465;BME280;46314;52.392;9.758;2023-03-25T05:12:47;99386.28;;;9.96;70.49
60465;BME280;46314;52.392;9.758;2023-03-25T05:15:14;99386.53;;;10.20;69.82
60465;BME280;46314;52.392;9.758;2023-03-25T05:17:41;99388.78;;;10.27;70.33
60465;BME280;46314;52.392;9.758;2023-03-25T05:20:08;99397.19;;;10.57;68.70
60465;BME280;46314;52.392;9.758;2023-03-25T05:22:36;99394.00;;;10.29;68.68
60465;BME280;46314;52.392;9.758;2023-03-25T05:25:03;99398.00;;;9.84;70.75
60465;BME280;46314;52.392;9.758;2023-03-25T05:27:30;99405.50;;;9.83;70.88
60465;BME280;46314;52.392;9.758;2023-03-25T05:29:56;99391.34;;;9.85;71.14
60465;BME280;46314;52.392;9.758;2023-03-25T05:32:23;99392.38;;;10.36;69.09
60465;BME280;46314;52.392;9.758;2023-03-25T05:34:50;99386.38;;;10.34;68.30
60465;BME280;46314;52.392;9.758;2023-03-25T05:37:16;99387.88;;;9.97;70.73
60465;BME280;46314;52.392;9.758;2023-03-25T05:39:44;99386.13;;;9.92;69.61
60465;BME280;46314;52.392;9.758;2023-03-25T05:42:11;99395.56;;;9.82;70.59
60465;BME280;46314;52.392;9.758;2023-03-25T05:44:37;99396.88;;;9.85;69.95
60465;BME280;46314;52.392;9.758;2023-03-25T05:47:03;99406.16;;;9.63;71.74
60465;BME280;46314;52.392;9.758;2023-03-25T05:49:30;99395.41;;;9.53;72.10
60465;BME280;46314;52.392;9.758;2023-03-25T05:51:56;99391.19;;;9.55;73.10
60465;BME280;46314;52.392;9.758;2023-03-25T05:54:23;99394.56;;;10.04;71.74
60465;BME280;46314;52.392;9.758;2023-03-25T05:56:50;99391.25;;;10.11;71.49
60465;BME280;46314;52.392;9.758;2023-03-25T05:59:17;99393.41;;;9.97;72.23
60465;BME280;46314;52.392;9.758;2023-03-25T06:01:43;99391.38;;;10.41;70.82
60465;BME280;46314;52.392;9.758;2023-03-25T06:04:10;99383.84;;;10.50;70.54
60465;BME280;46314;52.392;9.758;2023-03-25T06:06:36;99392.22;;;10.80;69.10
60465;BME280;46314;52.392;9.758;2023-03-25T06:09:03;99392.88;;;10.21;70.46
60465;BME280;46314;52.392;9.758;2023-03-25T06:11:29;99398.09;;;10.31;71.60
60465;BME280;46314;52.392;9.758;2023-03-25T06:13:57;99392.50;;;10.87;69.10
60465;BME280;46314;52.392;9.758;2023-03-25T06:16:24;99400.34;;;10.47;69.71
60465;BME280;46314;52.392;9.758;2023-03-25T06:18:51;99393.66;;;10.30;70.53
60465;BME280;46314;52.392;9.758;2023-03-25T06:21:18;99397.31;;;10.13;70.93
60465;BME280;46314;52.392;9.758;2023-03-25T06:23:46;99393.59;;;10.56;69.53
60465;BME280;46314;52.392;9.758;2023-03-25T06:26:12;99401.94;;;10.48;69.87
60465;BME280;46314;52.392;9.758;2023-03-25T06:28:39;99402.06;;;11.20;66.99
60465;BME280;46314;52.392;9.758;2023-03-25T06:31:12;99404.00;;;11.49;65.92
60465;BME280;46314;52.392;9.758;2023-03-25T06:33:38;99403.44;;;10.84;67.89
60465;BME280;46314;52.392;9.758;2023-03-25T06:36:10;99405.22;;;11.39;67.27
60465;BME280;46314;52.392;9.758;2023-03-25T06:38:37;99410.75;;;11.39;66.21
60465;BME280;46314;52.392;9.758;2023-03-25T06:41:04;99413.41;;;11.35;65.66
60465;BME280;46314;52.392;9.758;2023-03-25T06:43:30;99407.88;;;11.06;67.31
60465;BME280;46314;52.392;9.758;2023-03-25T06:45:56;99418.34;;;11.30;66.83
60465;BME280;46314;52.392;9.758;2023-03-25T06:48:24;99425.31;;;11.57;64.94
60465;BME280;46314;52.392;9.758;2023-03-25T06:50:51;99412.22;;;10.56;68.36
60465;BME280;46314;52.392;9.758;2023-03-25T06:53:17;99401.56;;;11.47;65.90
60465;BME280;46314;52.392;9.758;2023-03-25T06:55:44;99412.47;;;11.31;65.25
60465;BME280;46314;52.392;9.758;2023-03-25T06:58:10;99408.13;;;10.92;67.00
60465;BME280;46314;52.392;9.758;2023-03-25T07:00:37;99411.47;;;10.76;66.82
60465;BME280;46314;52.392;9.758;2023-03-25T07:03:03;99404.44;;;10.79;68.10
60465;BME280;46314;52.392;9.758;2023-03-25T07:05:31;99401.75;;;10.61;68.50
60465;BME280;46314;52.392;9.758;2023-03-25T07:07:57;99415.00;;;11.15;66.75
60465;BME280;46314;52.392;9.758;2023-03-25T07:10:24;99414.31;;;11.18;66.41
60465;BME280;46314;52.392;9.758;2023-03-25T07:12:50;99412.50;;;11.23;65.00
60465;BME280;46314;52.392;9.758;2023-03-25T07:15:17;99406.78;;;11.70;64.79
60465;BME280;46314;52.392;9.758;2023-03-25T07:17:43;99411.94;;;10.78;66.16
60465;BME280;46314;52.392;9.758;2023-03-25T07:20:10;99421.75;;;11.56;64.12
60465;BME280;46314;52.392;9.758;2023-03-25T07:22:41;99422.13;;;11.25;63.89
60465;BME280;46314;52.392;9.758;2023-03-25T07:25:08;99416.22;;;11.90;62.66
60465;BME280;46314;52.392;9.758;2023-03-25T07:27:34;99419.28;;;11.76;62.64
60465;BME280;46314;52.392;9.758;2023-03-25T07:30:01;99426.69;;;11.93;61.89
60465;BME280;46314;52.392;9.758;2023-03-25T07:32:27;99419.81;;;12.82;59.51
60465;BME280;46314;52.392;9.758;2023-03-25T07:34:54;99417.50;;;12.72;59.10
60465;BME280;46314;52.392;9.758;2023-03-25T07:37:20;99418.94;;;11.99;61.10
60465;BME280;46314;52.392;9.758;2023-03-25T07:39:48;99432.56;;;11.70;62.61
60465;BME280;46314;52.392;9.758;2023-03-25T07:42:14;99444.69;;;11.66;62.77
60465;BME280;46314;52.392;9.758;2023-03-25T07:44:41;99445.66;;;11.49;65.75
60465;BME280;46314;52.392;9.758;2023-03-25T07:47:07;99435.16;;;11.04;67.54
60465;BME280;46314;52.392;9.758;2023-03-25T07:49:33;99448.25;;;10.56;70.20
60465;BME280;46314;52.392;9.758;2023-03-25T07:52:00;99440.31;;;11.14;67.67
60465;BME280;46314;52.392;9.758;2023-03-25T07:54:26;99440.03;;;11.07;68.64
60465;BME280;46314;52.392;9.758;2023-03-25T07:56:54;99447.16;;;11.16;68.14
60465;BME280;46314;52.392;9.758;2023-03-25T07:59:20;99451.09;;;11.66;68.01
60465;BME280;46314;52.392;9.758;2023-03-25T08:01:47;99434.25;;;11.21;68.75
60465;BME280;46314;52.392;9.758;2023-03-25T08:04:14;99436.41;;;11.78;67.51
60465;BME280;46314;52.392;9.758;2023-03-25T08:06:40;99432.84;;;11.99;66.69
60465;BME280;46314;52.392;9.758;2023-03-25T08:09:06;99433.66;;;12.32;64.93
60465;BME280;46314;52.392;9.758;2023-03-25T08:11:33;99439.25;;;12.57;63.80
60465;BME280;46314;52.392;9.758;2023-03-25T08:14:01;99442.19;;;12.27;63.60
60465;BME280;46314;52.392;9.758;2023-03-25T08:16:27;99438.78;;;12.09;64.70
60465;BME280;46314;52.392;9.758;2023-03-25T08:18:54;99437.41;;;12.49;64.18
60465;BME280;46314;52.392;9.758;2023-03-25T08:21:21;99429.22;;;12.90;62.54
60465;BME280;46314;52.392;9.758;2023-03-25T08:23:47;99441.28;;;12.23;63.95
60465;BME280;46314;52.392;9.758;2023-03-25T08:26:14;99439.91;;;12.29;64.38
60465;BME280;46314;52.392;9.758;2023-03-25T08:28:40;99443.88;;;11.65;64.86
60465;BME280;46314;52.392;9.758;2023-03-25T08:31:08;99446.88;;;11.81;64.91
60465;BME280;46314;52.392;9.758;2023-03-25T08:33:34;99443.28;;;12.02;63.36
60465;BME280;46314;52.392;9.758;2023-03-25T08:36:00;99449.19;;;11.58;64.05
60465;BME280;46314;52.392;9.758;2023-03-25T08:38:27;99439.19;;;11.57;63.71
60465;BME280;46314;52.392;9.758;2023-03-25T08:40:54;99439.59;;;11.89;62.36
60465;BME280;46314;52.392;9.758;2023-03-25T08:43:20;99447.94;;;11.89;63.09
60465;BME280;46314;52.392;9.758;2023-03-25T08:45:46;99445.31;;;11.71;63.67
60465;BME280;46314;52.392;9.758;2023-03-25T08:48:14;99449.78;;;11.64;63.09
60465;BME280;46314;52.392;9.758;2023-03-25T08:50:41;99447.41;;;11.74;63.00
60465;BME280;46314;52.392;9.758;2023-03-25T08:53:07;99451.19;;;11.28;64.78
60465;BME280;46314;52.392;9.758;2023-03-25T08:55:34;99443.66;;;10.98;66.96
60465;BME280;46314;52.392;9.758;2023-03-25T08:58:02;99443.88;;;11.44;66.68
60465;BME280;46314;52.392;9.758;2023-03-25T09:00:29;99443.94;;;11.56;67.63
60465;BME280;46314;52.392;9.758;2023-03-25T09:02:55;99450.50;;;11.73;67.24
60465;BME280;46314;52.392;9.758;2023-03-25T09:05:24;99447.00;;;12.06;65.54
60465;BME280;46314;52.392;9.758;2023-03-25T09:07:50;99447.06;;;11.76;67.01
60465;BME280;46314;52.392;9.758;2023-03-25T09:10:17;99449.66;;;11.81;65.71
60465;BME280;46314;52.392;9.758;2023-03-25T09:12:43;99445.53;;;11.45;67.92
60465;BME280;46314;52.392;9.758;2023-03-25T09:15:11;99448.63;;;12.07;65.81
60465;BME280;46314;52.392;9.758;2023-03-25T09:17:38;99444.81;;;11.48;67.56
60465;BME280;46314;52.392;9.758;2023-03-25T09:20:05;99445.97;;;11.89;66.56
60465;BME280;46314;52.392;9.758;2023-03-25T09:22:37;99453.03;;;11.87;66.07
60465;BME280;46314;52.392;9.758;2023-03-25T09:25:05;99455.91;;;11.27;69.02
60465;BME280;46314;52.392;9.758;2023-03-25T09:27:31;99451.41;;;11.65;66.54
60465;BME280;46314;52.392;9.758;2023-03-25T09:29:58;99438.41;;;11.99;67.04
60465;BME280;46314;52.392;9.758;2023-03-25T09:32:25;99446.66;;;11.86;66.83
60465;BME280;46314;52.392;9.758;2023-03-25T09:34:51;99456.66;;;10.77;69.86
60465;BME280;46314;52.392;9.758;2023-03-25T09:37:17;99451.84;;;10.95;69.94
60465;BME280;46314;52.392;9.758;2023-03-25T09:39:45;99446.25;;;11.54;67.85
60465;BME280;46314;52.392;9.758;2023-03-25T09:42:33;99443.88;;;11.44;67.49
60465;BME280;46314;52.392;9.758;2023-03-25T09:45:09;99444.84;;;11.18;68.03
60465;BME280;46314;52.392;9.758;2023-03-25T09:47:41;99448.22;;;11.33;66.69
60465;BME280;46314;52.392;9.758;2023-03-25T09:50:14;99449.72;;;11.22;66.89
60465;BME280;46314;52.392;9.758;2023-03-25T09:52:49;99451.41;;;11.86;64.30
60465;BME280;46314;52.392;9.758;2023-03-25T09:55:21;99452.31;;;12.32;64.17
60465;BME280;46314;52.392;9.758;2023-03-25T09:57:53;99448.13;;;11.92;64.49
60465;BME280;46314;52.392;9.758;2023-03-25T10:00:23;99462.63;;;12.31;62.77
60465;BME280;46314;52.392;9.758;2023-03-25T10:02:54;99450.66;;;12.77;61.55
60465;BME280;46314;52.392;9.758;2023-03-25T10:05:37;99454.66;;;12.42;61.95
60465;BME280;46314;52.392;9.758;2023-03-25T10:08:07;99445.25;;;12.47;62.65
60465;BME280;46314;52.392;9.758;2023-03-25T10:10:43;99446.63;;;12.86;61.30
60465;BME280;46314;52.392;9.758;2023-03-25T10:13:16;99451.84;;;13.37;59.33
60465;BME280;46314;52.392;9.758;2023-03-25T10:15:48;99441.78;;;14.30;56.67
60465;BME280;46314;52.392;9.758;2023-03-25T10:18:35;99437.94;;;14.34;55.90
60465;BME280;46314;52.392;9.758;2023-03-25T10:21:09;99438.72;;;13.38;58.50
60465;BME280;46314;52.392;9.758;2023-03-25T10:23:41;99446.47;;;14.26;54.98
60465;BME280;46314;52.392;9.758;2023-03-25T10:26:15;99444.56;;;13.73;56.78
60465;BME280;46314;52.392;9.758;2023-03-25T10:28:47;99432.50;;;13.69;55.18
60465;BME280;46314;52.392;9.758;2023-03-25T10:31:16;99427.25;;;13.39;56.30
60465;BME280;46314;52.392;9.758;2023-03-25T10:33:48;99443.72;;;13.20;56.60
60465;BME280;46314;52.392;9.758;2023-03-25T10:36:17;99440.56;;;12.72;56.46
60465;BME280;46314;52.392;9.758;2023-03-25T10:38:45;99450.63;;;13.63;55.41
60465;BME280;46314;52.392;9.758;2023-03-25T10:41:19;99439.53;;;14.19;53.87
60465;BME280;46314;52.392;9.758;2023-03-25T10:43:49;99443.59;;;13.94;52.69
60465;BME280;46314;52.392;9.758;2023-03-25T10:46:18;99435.00;;;13.21;55.63
60465;BME280;46314;52.392;9.758;2023-03-25T10:48:49;99417.97;;;13.23;53.75
60465;BME280;46314;52.392;9.758;2023-03-25T10:51:18;99418.22;;;12.81;55.29
60465;BME280;46314;52.392;9.758;2023-03-25T10:53:47;99428.03;;;13.40;54.30
60465;BME280;46314;52.392;9.758;2023-03-25T10:56:18;99425.50;;;12.73;55.92
60465;BME280;46314;52.392;9.758;2023-03-25T10:58:47;99428.88;;;13.03;53.75
60465;BME280;46314;52.392;9.758;2023-03-25T11:01:16;99423.88;;;12.60;55.15
60465;BME280;46314;52.392;9.758;2023-03-25T11:03:45;99428.16;;;13.19;53.84
60465;BME280;46314;52.392;9.758;2023-03-25T11:06:20;99431.56;;;12.29;54.15
60465;BME280;46314;52.392;9.758;2023-03-25T11:09:12;99431.28;;;12.93;53.74
60465;BME280;46314;52.392;9.758;2023-03-25T11:11:41;99428.63;;;13.08;52.77
60465;BME280;46314;52.392;9.758;2023-03-25T11:14:08;99423.94;;;12.39;54.71
60465;BME280;46314;52.392;9.758;2023-03-25T11:16:40;99423.16;;;12.50;53.35
60465;BME280;46314;52.392;9.758;2023-03-25T11:19:15;99418.78;;;12.16;53.90
60465;BME280;46314;52.392;9.758;2023-03-25T11:21:45;99426.78;;;13.00;52.59
60465;BME280;46314;52.392;9.758;2023-03-25T11:24:13;99420.59;;;12.00;55.04
60465;BME280;46314;52.392;9.758;2023-03-25T11:26:45;99418.91;;;12.78;53.25
60465;BME280;46314;52.392;9.758;2023-03-25T11:29:15;99418.66;;;13.32;52.50
60465;BME280;46314;52.392;9.758;2023-03-25T11:31:42;99428.66;;;13.33;52.35
60465;BME280;46314;52.392;9.758;2023-03-25T11:34:16;99425.31;;;13.68;51.70
60465;BME280;46314;52.392;9.758;2023-03-25T11:36:47;99418.53;;;13.16;52.72
60465;BME280;46314;52.392;9.758;2023-03-25T11:39:22;99421.44;;;13.44;51.73
60465;BME280;46314;52.392;9.758;2023-03-25T11:41:51;99417.00;;;13.43;51.54
60465;BME280;46314;52.392;9.758;2023-03-25T11:44:21;99414.97;;;12.66;53.76
60465;BME280;46314;52.392;9.758;2023-03-25T11:46:49;99420.03;;;13.26;52.87
60465;BME280;46314;52.392;9.758;2023-03-25T11:49:19;99411.19;;;12.38;54.94
60465;BME280;46314;52.392;9.758;2023-03-25T11:51:46;99414.34;;;13.10;53.24
60465;BME280;46314;52.392;9.758;2023-03-25T11:54:14;99414.72;;;12.84;53.69
60465;BME280;46314;52.392;9.758;2023-03-25T11:56:43;99422.81;;;13.26;52.87
60465;BME280;46314;52.392;9.758;2023-03-25T11:59:23;99424.53;;;12.44;54.98
60465;BME280;46314;52.392;9.758;2023-03-25T12:01:58;99418.44;;;12.76;55.03
60465;BME280;46314;52.392;9.758;2023-03-25T12:04:25;99414.59;;;12.93;54.46
60465;BME280;46314;52.392;9.758;2023-03-25T12:06:58;99419.78;;;13.43;52.83
60465;BME280;46314;52.392;9.758;2023-03-25T12:09:26;99417.25;;;13.14;53.90
60465;BME280;46314;52.392;9.758;2023-03-25T12:12:20;99411.09;;;12.59;55.20
60465;BME280;46314;52.392;9.758;2023-03-25T12:15:01;99406.84;;;12.61;55.61
60465;BME280;46314;52.392;9.758;2023-03-25T12:17:42;99407.44;;;12.79;54.92
60465;BME280;46314;52.392;9.758;2023-03-25T12:20:16;99402.09;;;12.74;54.58
60465;BME280;46314;52.392;9.758;2023-03-25T12:22:54;99402.50;;;13.50;54.22
60465;BME280;46314;52.392;9.758;2023-03-25T12:25:31;99395.72;;;12.98;54.34
60465;BME280;46314;52.392;9.758;2023-03-25T12:28:17;99384.50;;;13.60;53.37
60465;BME280;46314;52.392;9.758;2023-03-25T12:30:55;99399.88;;;12.92;53.99
60465;BME280;46314;52.392;9.758;2023-03-25T12:33:32;99389.41;;;12.52;55.25
60465;BME280;46314;52.392;9.758;2023-03-25T12:36:14;99391.28;;;12.48;56.05
60465;BME280;46314;52.392;9.758;2023-03-25T12:38:53;99404.22;;;12.19;56.93
60465;BME280;46314;52.392;9.758;2023-03-25T12:41:28;99399.28;;;12.62;56.03
60465;BME280;46314;52.392;9.758;2023-03-25T12:44:01;99387.94;;;12.55;56.56
60465;BME280;46314;52.392;9.758;2023-03-25T12:46:39;99402.31;;;12.94;56.02
60465;BME280;46314;52.392;9.758;2023-03-25T12:49:18;99406.53;;;13.65;54.13
60465;BME280;46314;52.392;9.758;2023-03-25T12:51:55;99402.25;;;13.55;55.20
60465;BME280;46314;52.392;9.758;2023-03-25T12:54:35;99410.72;;;13.59;54.38
60465;BME280;46314;52.392;9.758;2023-03-25T12:57:19;99391.41;;;13.66;54.43
60465;BME280;46314;52.392;9.758;2023-03-25T13:00:15;99385.63;;;12.94;56.43
60465;BME280;46314;52.392;9.758;2023-03-25T13:03:08;99380.38;;;13.17;55.19
60465;BME280;46314;52.392;9.758;2023-03-25T13:05:41;99394.50;;;13.49;55.33
60465;BME280;46314;52.392;9.758;2023-03-25T13:08:15;99379.91;;;13.27;55.93
60465;BME280;46314;52.392;9.758;2023-03-25T13:10:46;99378.47;;;13.86;54.23
60465;BME280;46314;52.392;9.758;2023-03-25T13:13:18;99385.63;;;14.15;54.57
60465;BME280;46314;52.392;9.758;2023-03-25T13:15:49;99370.16;;;14.02;54.50